Time;durP1;ratioP1;P1;durP2;ratioP2;P2;SDS_P1;SDS_P2;PMS_P1;PMS_P2;Temp;Humidity;BMP_temperature;BMP_pressure;BME280_temperature;BME280_humidity;BME280_pressure;Samples;Min_cycle;Max_cycle;Signal;HPM_P1;HPM_P2
2022/07/15 00:02:19;;;;;;;4.47;2.97;;;;;;;18.29;59.92;94992.72;5115175;28;20199;-68
2022/07/15 00:04:46;;;;;;;3.25;2.95;;;;;;;18.34;59.74;94988.72;5118453;28;20198;-68
2022/07/15 00:07:13;;;;;;;4.05;3.50;;;;;;;18.32;59.96;94985.53;5118632;28;20207;-68
2022/07/15 00:12:25;;;;;;;3.47;3.17;;;;;;;18.18;59.73;94994.75;5118571;28;20203;-68
2022/07/15 00:14:52;;;;;;;5.22;3.33;;;;;;;18.13;59.94;94978.44;5118381;28;20203;-68
2022/07/15 00:17:18;;;;;;;3.05;2.80;;;;;;;18.11;60.37;94983.63;5118857;28;20252;-68
2022/07/15 00:19:45;;;;;;;3.30;2.88;;;;;;;18.09;60.15;94986.81;5118064;28;20192;-68
2022/07/15 00:22:12;;;;;;;3.17;2.80;;;;;;;18.01;60.16;94986.06;5119071;28;20202;-68
2022/07/15 00:24:39;;;;;;;3.30;3.00;;;;;;;17.97;60.31;94995.63;5119317;28;20215;-68
2022/07/15 00:27:05;;;;;;;3.55;3.00;;;;;;;17.97;60.59;94990.84;5118121;28;20279;-68
2022/07/15 00:29:34;;;;;;;3.95;3.00;;;;;;;17.95;60.68;94992.44;5119002;28;20204;-68
2022/07/15 00:32:01;;;;;;;3.30;3.00;;;;;;;17.96;60.34;94996.81;5118748;28;20188;-68
2022/07/15 00:34:28;;;;;;;2.97;2.67;;;;;;;17.90;60.63;94988.06;5118971;28;20180;-68
2022/07/15 00:36:55;;;;;;;3.70;2.45;;;;;;;17.82;60.60;94988.47;5118041;28;20491;-68
2022/07/15 00:39:22;;;;;;;3.85;2.60;;;;;;;17.76;60.43;94976.94;5119066;27;20513;-68
2022/07/15 00:41:49;;;;;;;3.83;2.70;;;;;;;17.73;60.18;94988.88;5118917;28;20194;-68
2022/07/15 00:44:15;;;;;;;3.42;2.88;;;;;;;17.74;60.78;94987.66;5117604;28;20195;-68
2022/07/15 00:46:44;;;;;;;2.72;2.53;;;;;;;17.74;60.43;94990.47;5118815;28;20180;-68
2022/07/15 00:49:11;;;;;;;2.67;2.47;;;;;;;17.72;60.86;94982.50;5118285;28;20204;-68
2022/07/15 00:51:41;;;;;;;2.65;2.45;;;;;;;17.72;60.37;94981.69;5118334;28;20591;-68
2022/07/15 00:54:10;;;;;;;2.78;2.38;;;;;;;17.67;61.18;94977.31;5117296;28;20235;-68
2022/07/15 00:56:38;;;;;;;2.95;2.75;;;;;;;17.62;60.36;94972.16;5118313;28;20179;-68
2022/07/15 00:59:06;;;;;;;4.10;2.42;;;;;;;17.61;60.75;94970.56;5118430;28;20188;-68
2022/07/15 01:01:33;;;;;;;3.35;2.60;;;;;;;17.63;60.88;94965.38;5118448;28;20196;-68
2022/07/15 01:04:03;;;;;;;2.60;2.40;;;;;;;17.62;61.13;94965.78;5117681;28;20272;-68
2022/07/15 01:06:30;;;;;;;3.30;2.53;;;;;;;17.60;60.65;94966.16;5118068;28;20202;-68
2022/07/15 01:08:56;;;;;;;4.60;3.00;;;;;;;17.60;61.12;94968.97;5117430;28;20196;-68
2022/07/15 01:11:23;;;;;;;2.80;2.55;;;;;;;17.61;60.69;94972.53;5117600;28;20191;-68
2022/07/15 01:13:50;;;;;;;3.50;3.20;;;;;;;17.63;60.51;94970.94;5117561;28;20200;-68
2022/07/15 01:16:17;;;;;;;4.00;2.55;;;;;;;17.64;60.20;94964.16;5117181;28;20222;-68
2022/07/15 01:18:43;;;;;;;3.13;2.83;;;;;;;17.61;60.71;94962.19;5117290;28;20216;-68
2022/07/15 01:21:12;;;;;;;3.83;3.10;;;;;;;17.54;61.36;94957.44;5117311;28;20249;-68
2022/07/15 01:23:42;;;;;;;3.88;2.88;;;;;;;17.48;61.12;94958.22;5117551;28;20199;-68
2022/07/15 01:26:10;;;;;;;3.65;2.80;;;;;;;17.41;61.74;94952.66;5117479;28;20204;-68
2022/07/15 01:28:37;;;;;;;3.80;3.10;;;;;;;17.33;62.04;94949.09;5117724;28;20588;-68
2022/07/15 01:31:05;;;;;;;4.85;3.35;;;;;;;17.22;61.28;94951.09;5117676;28;20204;-68
2022/07/15 01:33:32;;;;;;;6.03;3.00;;;;;;;17.18;61.55;94947.50;5117178;28;20245;-68
2022/07/15 01:35:59;;;;;;;4.07;2.90;;;;;;;17.14;61.29;94953.06;5117205;28;20223;-69
2022/07/15 01:38:27;;;;;;;3.20;2.90;;;;;;;17.11;61.31;94951.09;5117647;28;20192;-68
2022/07/15 01:40:54;;;;;;;3.65;2.72;;;;;;;17.09;61.63;94947.88;5117532;28;20207;-68
2022/07/15 01:43:21;;;;;;;3.35;2.80;;;;;;;17.05;61.67;94950.66;5116925;28;20184;-68
2022/07/15 01:45:48;;;;;;;6.20;2.85;;;;;;;17.04;61.87;94959.44;5116672;28;20203;-68
2022/07/15 01:50:57;;;;;;;4.15;2.55;;;;;;;16.96;62.14;94955.84;5115212;28;20231;-68
2022/07/15 01:53:23;;;;;;;2.95;2.45;;;;;;;16.97;62.56;94962.22;5117573;28;20292;-68
2022/07/15 01:55:52;;;;;;;3.40;2.42;;;;;;;17.00;61.99;94967.78;5117470;28;20191;-68
2022/07/15 01:58:19;;;;;;;3.28;2.92;;;;;;;17.03;62.24;94977.31;5116439;28;20229;-68
2022/07/15 02:00:46;;;;;;;4.85;3.05;;;;;;;17.00;62.69;94967.78;5117355;28;20179;-68
2022/07/15 02:03:13;;;;;;;4.22;2.70;;;;;;;17.00;63.04;94969.78;5117256;28;20199;-68
2022/07/15 02:05:41;;;;;;;3.92;2.67;;;;;;;17.02;62.61;94961.81;5116369;28;20196;-68
2022/07/15 02:08:08;;;;;;;4.45;2.88;;;;;;;17.01;62.89;94963.81;5116285;28;20198;-68
2022/07/15 02:10:40;;;;;;;3.30;2.97;;;;;;;16.96;62.43;94966.22;5116164;28;20647;-68
2022/07/15 02:13:08;;;;;;;2.92;2.60;;;;;;;16.87;62.88;94963.00;5116799;28;20203;-68
2022/07/15 02:15:35;;;;;;;3.85;2.55;;;;;;;16.81;63.01;94971.75;5117057;28;20179;-68
2022/07/15 02:18:02;;;;;;;5.03;2.90;;;;;;;16.78;63.12;94964.19;5116784;28;20596;-68
2022/07/15 02:20:30;;;;;;;3.95;3.03;;;;;;;16.77;63.78;94961.78;5116962;28;20184;-68
2022/07/15 02:22:58;;;;;;;3.65;2.92;;;;;;;16.78;63.73;94961.41;5115999;28;20199;-68
2022/07/15 02:25:26;;;;;;;3.30;2.70;;;;;;;16.80;63.54;94970.13;5115861;28;20607;-68
2022/07/15 02:27:56;;;;;;;5.00;2.90;;;;;;;16.75;63.08;94961.41;5116285;28;20279;-68
2022/07/15 02:30:25;;;;;;;8.02;3.20;;;;;;;16.70;63.08;94962.53;5116690;28;20211;-68
2022/07/15 02:32:52;;;;;;;5.47;3.33;;;;;;;16.64;63.23;94961.34;5116665;28;20184;-68
2022/07/15 02:35:19;;;;;;;6.70;3.28;;;;;;;16.57;63.18;94967.69;5116445;28;20552;-68
2022/07/15 02:37:46;;;;;;;4.70;3.33;;;;;;;16.52;63.15;94958.91;5116136;28;20196;-68
2022/07/15 02:40:13;;;;;;;6.05;3.70;;;;;;;16.53;64.06;94961.31;5115665;28;20191;-68
2022/07/15 02:42:40;;;;;;;7.63;3.60;;;;;;;16.58;63.49;94968.47;5115610;28;20199;-68
2022/07/15 02:45:08;;;;;;;6.47;3.30;;;;;;;16.66;63.80;94958.94;5116426;28;20196;-68
2022/07/15 02:47:36;;;;;;;4.22;3.40;;;;;;;16.63;63.98;94956.97;5116407;28;20202;-68
2022/07/15 02:50:03;;;;;;;5.78;3.63;;;;;;;16.57;64.06;94961.31;5116356;28;20211;-68
2022/07/15 02:52:29;;;;;;;7.32;4.63;;;;;;;16.52;63.95;94956.94;5115829;28;20655;-68
2022/07/15 02:54:56;;;;;;;10.07;4.20;;;;;;;16.49;63.64;94960.50;5115340;28;20207;-68
2022/07/15 02:57:23;;;;;;;7.05;4.55;;;;;;;16.51;64.62;94958.13;5116261;28;20195;-68
2022/07/15 02:59:50;;;;;;;5.55;3.50;;;;;;;16.46;64.35;94955.72;5116722;28;20191;-68
2022/07/15 03:02:17;;;;;;;5.20;3.78;;;;;;;16.40;64.34;94962.84;5116302;28;20210;-68
2022/07/15 03:04:45;;;;;;;7.40;4.53;;;;;;;16.36;64.31;94962.06;5115329;28;20199;-68
2022/07/15 03:07:12;;;;;;;8.80;4.60;;;;;;;16.37;64.33;94963.66;5116057;28;20260;-68
2022/07/15 03:09:39;;;;;;;7.43;4.13;;;;;;;16.39;64.93;94957.69;5115040;28;20211;-68
2022/07/15 03:12:06;;;;;;;5.72;4.03;;;;;;;16.39;64.63;94963.28;5115243;28;20199;-68
2022/07/15 03:14:33;;;;;;;9.80;4.57;;;;;;;16.38;64.71;94968.03;5098351;28;20196;-68
2022/07/15 03:17:00;;;;;;;5.75;4.47;;;;;;;16.42;64.54;94960.50;5115003;28;20187;-68
2022/07/15 03:19:27;;;;;;;6.93;4.18;;;;;;;16.44;64.14;94960.09;5115854;28;20198;-68
2022/07/15 03:21:55;;;;;;;5.50;4.15;;;;;;;16.41;64.23;94958.09;5115512;28;20501;-68
2022/07/15 03:24:22;;;;;;;7.30;4.28;;;;;;;16.42;64.50;94962.47;5114672;28;20604;-68
2022/07/15 03:26:49;;;;;;;8.25;3.90;;;;;;;16.39;64.59;94960.47;5114836;28;20218;-68
2022/07/15 03:29:16;;;;;;;6.05;3.80;;;;;;;16.35;64.77;94954.91;5114580;28;20199;-68
2022/07/15 03:31:42;;;;;;;6.20;3.80;;;;;;;16.36;65.28;94954.50;5115681;28;20236;-68
2022/07/15 03:34:10;;;;;;;5.03;3.75;;;;;;;16.42;64.87;94959.69;5115902;28;20211;-68
2022/07/15 03:36:37;;;;;;;6.80;4.32;;;;;;;16.44;64.85;94958.09;5115616;28;20194;-68
2022/07/15 03:39:06;;;;;;;6.15;3.85;;;;;;;16.48;64.40;94961.69;5113703;28;20220;-68
2022/07/15 03:41:33;;;;;;;6.00;4.07;;;;;;;16.49;64.34;94963.31;5114622;28;20184;-68
2022/07/15 03:44:00;;;;;;;5.78;3.80;;;;;;;16.56;64.62;94965.31;5114954;28;20200;-69
2022/07/15 03:46:27;;;;;;;4.88;4.20;;;;;;;16.56;63.86;94960.53;5115565;28;20192;-68
2022/07/15 03:48:54;;;;;;;3.88;3.45;;;;;;;16.58;63.85;94960.91;5115513;28;20182;-68
2022/07/15 03:51:21;;;;;;;6.97;3.78;;;;;;;16.65;63.98;94967.72;5115391;28;20213;-68
2022/07/15 03:53:47;;;;;;;5.65;3.85;;;;;;;16.65;63.81;94962.13;5114239;28;20539;-68
2022/07/15 03:56:15;;;;;;;6.68;4.07;;;;;;;16.66;63.81;94969.28;5115162;28;20191;-68
2022/07/15 03:58:44;;;;;;;5.80;3.53;;;;;;;16.65;63.84;94968.50;5114759;28;20207;-68
2022/07/15 04:01:10;;;;;;;5.25;3.42;;;;;;;16.65;63.02;94971.28;5115154;28;20314;-68
2022/07/15 04:03:37;;;;;;;5.75;3.70;;;;;;;16.68;63.55;94967.72;5114537;28;20219;-68
2022/07/15 04:06:05;;;;;;;6.25;3.80;;;;;;;16.73;63.51;94972.88;5114540;28;20210;-68
2022/07/15 04:08:31;;;;;;;4.45;3.28;;;;;;;16.74;62.50;94968.13;5114715;28;20203;-68
2022/07/15 04:10:58;;;;;;;5.60;3.20;;;;;;;16.77;62.19;94967.34;5115284;28;20211;-68
2022/07/15 04:13:26;;;;;;;4.63;3.15;;;;;;;16.79;62.13;94971.34;5114621;28;20204;-68
2022/07/15 04:15:53;;;;;;;4.03;3.40;;;;;;;16.85;61.85;94968.97;5115050;28;20531;-68
2022/07/15 04:18:20;;;;;;;6.72;3.53;;;;;;;16.89;61.73;94966.19;5115011;28;20540;-68
2022/07/15 04:20:48;;;;;;;4.65;3.40;;;;;;;16.88;61.32;94970.94;5114448;28;20204;-68
2022/07/15 04:23:15;;;;;;;6.32;3.60;;;;;;;16.83;61.37;94966.56;5114399;28;20196;-68
2022/07/15 04:25:42;;;;;;;5.22;3.60;;;;;;;16.82;62.08;94969.75;5114054;28;20525;-68
2022/07/15 04:28:09;;;;;;;5.93;3.58;;;;;;;16.82;62.35;94967.78;5114408;28;20207;-68
2022/07/15 04:30:37;;;;;;;4.10;3.17;;;;;;;16.87;62.77;94972.16;5115072;28;20203;-68
2022/07/15 04:33:04;;;;;;;5.00;3.53;;;;;;;16.87;62.17;94971.34;5114878;28;20199;-68
2022/07/15 04:35:31;;;;;;;5.57;3.20;;;;;;;16.92;62.50;94970.94;5114342;28;20196;-68
2022/07/15 04:37:57;;;;;;;4.03;3.63;;;;;;;16.92;62.55;94969.00;5114271;28;20195;-68
2022/07/15 04:40:24;;;;;;;3.88;3.53;;;;;;;16.95;63.13;94968.16;5115084;28;20191;-68
2022/07/15 04:42:51;;;;;;;6.32;3.50;;;;;;;16.98;62.49;94970.16;5114199;28;20526;-68
2022/07/15 04:45:18;;;;;;;5.53;3.42;;;;;;;17.03;61.94;94969.78;5115042;28;20200;-68
2022/07/15 04:47:47;;;;;;;4.20;3.65;;;;;;;17.04;62.50;94970.59;5114829;28;20184;-68
2022/07/15 04:53:04;;;;;;;5.03;3.40;;;;;;;17.11;62.56;94973.38;5097644;28;20338;-68
2022/07/15 04:55:30;;;;;;;4.78;3.33;;;;;;;17.16;62.32;94969.38;5119113;28;20608;-68
2022/07/15 04:57:57;;;;;;;5.20;3.50;;;;;;;17.18;61.79;94967.81;5117695;28;20216;-68
2022/07/15 05:00:24;;;;;;;6.28;4.03;;;;;;;17.23;62.01;94964.59;5117826;28;20196;-68
2022/07/15 05:02:52;;;;;;;7.28;3.85;;;;;;;17.27;60.94;94970.97;5117474;28;20184;-68
2022/07/15 05:05:19;;;;;;;4.38;3.80;;;;;;;17.29;61.46;94971.38;5118416;28;20583;-68
2022/07/15 05:07:46;;;;;;;5.80;4.50;;;;;;;17.31;61.66;94980.13;5118424;28;20219;-68
2022/07/15 05:10:13;;;;;;;6.80;4.32;;;;;;;17.35;61.71;94970.97;5118243;28;20187;-69
2022/07/15 05:12:40;;;;;;;6.60;4.30;;;;;;;17.38;61.21;94970.97;5118175;28;20190;-68
2022/07/15 05:15:08;;;;;;;6.95;5.00;;;;;;;17.42;61.37;94977.34;5117400;28;20204;-68
2022/07/15 05:17:35;;;;;;;8.38;5.00;;;;;;;17.45;61.38;94970.19;5118238;28;20195;-68
2022/07/15 05:20:04;;;;;;;8.15;5.20;;;;;;;17.49;61.50;94979.31;5117339;28;20199;-68
2022/07/15 05:22:30;;;;;;;6.55;5.20;;;;;;;17.53;60.95;94975.34;5116835;28;20638;-68
2022/07/15 05:24:58;;;;;;;4.03;3.72;;;;;;;17.58;59.83;94973.38;5117957;28;20188;-68
2022/07/15 05:27:24;;;;;;;3.50;3.20;;;;;;;17.63;59.01;94975.72;5117529;28;20199;-68
2022/07/15 05:29:52;;;;;;;5.28;3.70;;;;;;;17.69;59.08;94969.34;5117908;28;20187;-68
2022/07/15 05:32:19;;;;;;;5.80;3.75;;;;;;;17.75;59.28;94966.94;5117155;28;20208;-68
2022/07/15 05:34:46;;;;;;;5.22;4.07;;;;;;;17.81;58.64;94976.53;5117833;28;20211;-68
2022/07/15 05:37:14;;;;;;;4.80;4.13;;;;;;;17.84;58.82;94966.56;5117899;28;20188;-68
2022/07/15 05:39:53;;;;;;;5.55;3.97;;;;;;;17.88;58.73;94965.34;5117432;28;20203;-68
2022/07/15 05:42:20;;;;;;;5.97;3.88;;;;;;;17.92;58.58;94966.13;5117116;28;20264;-68
2022/07/15 05:44:46;;;;;;;4.32;3.65;;;;;;;17.97;58.87;94967.72;5116717;28;20199;-68
2022/07/15 05:47:14;;;;;;;5.53;4.45;;;;;;;18.02;58.74;94967.31;5117669;28;20187;-68
2022/07/15 05:49:41;;;;;;;6.68;4.63;;;;;;;18.06;58.50;94970.88;5117581;28;20249;-68
2022/07/15 05:52:08;;;;;;;4.82;4.38;;;;;;;18.11;58.77;94966.88;5116225;28;20529;-68
2022/07/15 05:54:36;;;;;;;6.82;4.65;;;;;;;18.16;58.70;94972.06;5117569;28;20187;-68
2022/07/15 05:57:03;;;;;;;6.80;5.63;;;;;;;18.19;58.27;94963.66;5116528;28;20234;-68
2022/07/15 05:59:31;;;;;;;8.30;4.97;;;;;;;18.24;58.59;94970.81;5116188;28;20187;-68
2022/07/15 06:01:58;;;;;;;6.75;5.00;;;;;;;18.28;58.17;94966.81;5116420;28;20218;-68
2022/07/15 06:04:27;;;;;;;7.68;5.07;;;;;;;18.33;58.41;94973.16;5117242;28;20172;-68
2022/07/15 06:06:54;;;;;;;4.97;4.10;;;;;;;18.37;57.98;94968.38;5115929;28;20619;-68
2022/07/15 06:09:21;;;;;;;4.43;3.97;;;;;;;18.40;57.68;94967.56;5116898;28;20207;-68
2022/07/15 06:11:49;;;;;;;7.60;4.47;;;;;;;18.41;58.05;94963.56;5116143;28;20211;-68
2022/07/15 06:14:16;;;;;;;6.20;3.70;;;;;;;18.45;57.05;94967.94;5117567;28;20196;-68
2022/07/15 06:16:43;;;;;;;6.47;3.90;;;;;;;18.49;56.50;94967.94;5117120;28;20208;-68
2022/07/15 06:19:10;;;;;;;6.57;4.82;;;;;;;18.53;57.15;94968.69;5116942;28;20187;-68
2022/07/15 06:21:37;;;;;;;7.10;6.32;;;;;;;18.57;57.03;94965.88;5116702;28;20695;-68
2022/07/15 06:24:04;;;;;;;7.78;6.68;;;;;;;18.59;56.83;94969.88;5116670;28;20184;-68
2022/07/15 06:26:34;;;;;;;6.18;5.15;;;;;;;18.63;57.10;94967.84;5115911;28;20203;-68
2022/07/15 06:29:02;;;;;;;4.97;4.45;;;;;;;18.67;56.85;94965.03;5115613;28;20256;-68
2022/07/15 06:31:29;;;;;;;5.93;4.70;;;;;;;18.70;56.89;94959.44;5115797;28;20667;-68
2022/07/15 06:33:58;;;;;;;5.75;4.30;;;;;;;18.75;56.32;94967.41;5117014;28;20184;-68
2022/07/15 06:36:25;;;;;;;5.32;3.45;;;;;;;18.79;55.85;94967.38;5115666;28;20528;-68
2022/07/15 06:38:52;;;;;;;4.45;3.85;;;;;;;18.83;55.81;94965.34;5116339;28;20180;-68
2022/07/15 06:41:19;;;;;;;6.18;3.85;;;;;;;18.89;55.60;94966.53;5115651;28;20191;-68
2022/07/15 06:43:46;;;;;;;4.18;3.60;;;;;;;18.93;55.55;94964.50;5115599;28;20219;-68
2022/07/15 06:46:14;;;;;;;15.38;5.95;;;;;;;18.96;55.29;94958.09;5116444;28;20245;-68
2022/07/15 06:48:42;;;;;;;5.88;3.90;;;;;;;19.02;55.05;94958.44;5116566;28;20627;-68
2022/07/15 06:51:09;;;;;;;4.03;3.72;;;;;;;19.10;54.18;94959.19;5116247;28;20234;-68
2022/07/15 06:53:36;;;;;;;5.38;3.80;;;;;;;19.13;54.18;94952.78;5116504;28;20232;-68
2022/07/15 06:56:03;;;;;;;5.20;4.10;;;;;;;19.13;54.32;94955.56;5115371;28;20294;-68
2022/07/15 06:58:29;;;;;;;4.68;3.03;;;;;;;19.16;54.25;94960.34;5116329;28;20190;-68
2022/07/15 07:00:56;;;;;;;3.42;3.08;;;;;;;19.17;54.05;94957.16;5116280;28;20184;-68
2022/07/15 07:03:24;;;;;;;4.18;3.67;;;;;;;19.19;53.28;94951.94;5115930;28;20176;-68
2022/07/15 07:05:51;;;;;;;4.53;4.10;;;;;;;19.25;53.52;94955.09;5115328;28;20526;-68
2022/07/15 07:08:18;;;;;;;4.40;4.00;;;;;;;19.29;53.59;94953.06;5116097;28;20203;-68
2022/07/15 07:10:44;;;;;;;13.80;9.88;;;;;;;19.33;53.93;94959.41;5115101;28;20188;-68
2022/07/15 07:13:11;;;;;;;8.52;4.38;;;;;;;19.40;54.40;94950.16;5115726;28;20188;-68
2022/07/15 07:15:38;;;;;;;5.22;4.20;;;;;;;19.45;55.79;94958.09;5115058;28;20195;-68
2022/07/15 07:18:05;;;;;;;6.03;5.38;;;;;;;19.48;55.68;94946.09;5115227;28;20195;-68
2022/07/15 07:20:33;;;;;;;5.32;4.90;;;;;;;19.54;56.05;94949.25;5115875;28;20187;-68
2022/07/15 07:23:00;;;;;;;5.13;4.13;;;;;;;19.60;57.07;94953.16;5114887;28;20191;-68
2022/07/15 07:25:27;;;;;;;4.93;4.00;;;;;;;19.75;55.95;94943.44;5115008;28;20528;-68
2022/07/15 07:27:54;;;;;;;5.68;3.80;;;;;;;19.87;55.15;94942.16;5115198;28;20203;-68
2022/07/15 07:30:21;;;;;;;9.55;4.90;;;;;;;19.94;55.03;94942.88;5115497;28;20565;-68
2022/07/15 07:32:48;;;;;;;7.43;3.90;;;;;;;19.98;53.91;94945.63;5114739;28;20207;-68
2022/07/15 07:35:14;;;;;;;4.38;3.95;;;;;;;20.04;53.68;94943.94;5114859;28;20586;-68
2022/07/15 07:37:43;;;;;;;5.80;3.80;;;;;;;20.04;53.56;94943.16;5115755;28;20209;-68
2022/07/15 07:40:10;;;;;;;8.32;4.35;;;;;;;20.07;53.18;94945.13;5115683;28;20196;-68
2022/07/15 07:42:38;;;;;;;4.80;3.53;;;;;;;20.10;52.73;94947.88;5114697;28;20253;-68
2022/07/15 07:45:06;;;;;;;7.20;4.30;;;;;;;20.12;53.04;94951.06;5114602;28;20196;-68
2022/07/15 07:47:37;;;;;;;6.22;4.30;;;;;;;20.18;53.39;94954.19;5114832;28;20198;-68
2022/07/15 07:50:04;;;;;;;4.63;3.92;;;;;;;20.25;54.22;94956.91;5115621;28;20199;-68
2022/07/15 07:52:30;;;;;;;7.55;5.72;;;;;;;20.32;53.53;94951.22;5114376;28;20227;-68
2022/07/15 07:54:58;;;;;;;3.90;3.60;;;;;;;20.41;53.96;94950.72;5115506;28;20497;-68
2022/07/15 07:57:25;;;;;;;4.70;3.50;;;;;;;20.62;52.79;94938.44;5115268;28;20241;-68
2022/07/15 07:59:53;;;;;;;4.03;3.63;;;;;;;20.65;52.91;94938.41;5115013;28;20195;-68
2022/07/15 08:02:20;;;;;;;7.53;4.18;;;;;;;20.70;53.70;94934.34;5115206;28;20267;-68
2022/07/15 08:04:46;;;;;;;4.40;3.75;;;;;;;20.85;52.40;94937.75;5115555;28;20207;-68
2022/07/15 08:07:13;;;;;;;5.15;4.18;;;;;;;20.88;52.46;94932.09;5114191;28;20227;-68
2022/07/15 08:09:40;;;;;;;5.28;4.57;;;;;;;20.87;51.37;94935.31;5115435;28;20184;-68
2022/07/15 08:12:08;;;;;;;4.70;4.18;;;;;;;20.86;51.42;94922.50;5114455;28;20219;-68
2022/07/15 08:14:35;;;;;;;4.65;4.25;;;;;;;20.87;51.99;94930.47;5114623;28;20234;-68
2022/07/15 08:17:02;;;;;;;7.65;4.00;;;;;;;21.03;52.25;94929.88;5115235;28;20187;-68
2022/07/15 08:19:28;;;;;;;4.57;3.60;;;;;;;21.31;50.40;94930.59;5115349;28;20199;-68
2022/07/15 08:21:55;;;;;;;4.70;3.65;;;;;;;21.42;50.31;94928.44;5115414;28;20188;-68
2022/07/15 08:24:22;;;;;;;3.90;3.50;;;;;;;21.52;49.46;94926.69;5115251;28;20191;-68
2022/07/15 08:26:49;;;;;;;3.30;3.00;;;;;;;21.51;50.27;94925.91;5119306;28;20244;-68
2022/07/15 08:29:17;;;;;;;5.07;3.55;;;;;;;21.52;48.83;94921.88;5119313;28;20176;-68
2022/07/15 08:31:44;;;;;;;4.28;3.67;;;;;;;21.56;49.33;94925.41;5118184;28;20211;-68
2022/07/15 08:34:12;;;;;;;5.13;3.40;;;;;;;21.58;50.34;94922.97;5118114;28;20199;-68
2022/07/15 08:36:38;;;;;;;4.15;3.78;;;;;;;21.66;49.41;94911.63;5118883;28;20188;-68
2022/07/15 08:39:05;;;;;;;8.27;4.20;;;;;;;21.69;49.29;94919.19;5118057;28;20191;-68
2022/07/15 08:41:35;;;;;;;5.80;3.35;;;;;;;21.75;49.25;94915.47;5117791;28;20632;-67
2022/07/15 08:44:02;;;;;;;5.00;3.53;;;;;;;21.80;48.49;94914.94;5118132;28;20203;-68
2022/07/15 08:46:31;;;;;;;5.57;3.50;;;;;;;21.95;48.80;94903.44;5118205;28;20199;-67
2022/07/15 08:49:03;;;;;;;5.10;3.60;;;;;;;22.18;48.34;94909.03;5118544;28;20214;-67
2022/07/15 08:51:31;;;;;;;3.75;3.13;;;;;;;22.23;47.72;94908.53;5118668;28;20251;-68
2022/07/15 08:53:58;;;;;;;4.93;3.33;;;;;;;22.28;47.64;94904.41;5118282;28;20293;-68
2022/07/15 08:56:25;;;;;;;4.50;3.47;;;;;;;22.39;49.04;94909.81;5118778;28;20187;-68
2022/07/15 08:58:52;;;;;;;5.00;3.72;;;;;;;22.80;47.35;94901.69;5117639;28;20191;-68
2022/07/15 09:01:19;;;;;;;6.15;3.58;;;;;;;22.96;47.63;94903.75;5118119;28;20198;-68
2022/07/15 09:03:47;;;;;;;3.25;2.92;;;;;;;22.96;46.49;94902.97;5118622;28;20190;-68
2022/07/15 09:06:31;;;;;;;5.50;5.00;;;;;;;23.02;47.29;94906.81;5118464;28;20180;-68
2022/07/15 09:08:59;;;;;;;4.35;2.95;;;;;;;23.07;46.27;94895.06;5117543;28;20636;-68
2022/07/15 09:11:28;;;;;;;3.72;3.00;;;;;;;23.21;46.50;94899.56;5118031;28;20204;-68
2022/07/15 09:13:55;;;;;;;3.67;3.13;;;;;;;23.32;44.29;94900.09;5118397;28;20200;-68
2022/07/15 09:16:23;;;;;;;3.28;2.97;;;;;;;23.45;44.24;94895.31;5117300;28;20600;-68
2022/07/15 09:18:52;;;;;;;3.78;3.47;;;;;;;23.66;45.15;94901.63;5117309;28;20539;-68
2022/07/15 09:21:21;;;;;;;4.15;3.42;;;;;;;23.84;43.27;94896.34;5116862;28;20200;-68
2022/07/15 09:23:48;;;;;;;3.45;3.15;;;;;;;23.94;46.06;94891.66;5116826;28;20203;-68
2022/07/15 09:26:26;;;;;;;4.03;3.67;;;;;;;24.03;43.58;94888.97;5117317;28;20196;-68
2022/07/15 09:28:53;;;;;;;4.03;3.67;;;;;;;23.96;44.60;94892.78;5117078;28;20195;-68
2022/07/15 09:34:21;;;;;;;5.15;3.90;;;;;;;23.99;42.05;94891.91;5117835;28;20172;-68
2022/07/15 09:36:52;;;;;;;6.13;3.55;;;;;;;24.02;44.41;94890.22;5117493;28;20513;-68
2022/07/15 09:39:20;;;;;;;5.20;3.42;;;;;;;24.14;43.74;94894.31;5117549;28;20281;-68
2022/07/15 09:41:47;;;;;;;4.65;3.33;;;;;;;24.29;44.16;94898.31;5117867;28;20208;-68
2022/07/15 09:44:15;;;;;;;4.68;3.13;;;;;;;24.49;44.17;94890.50;5117755;28;20180;-68
2022/07/15 09:46:45;;;;;;;5.13;3.15;;;;;;;24.57;45.02;94895.94;5116538;28;20200;-68
2022/07/15 09:49:13;;;;;;;4.95;3.00;;;;;;;24.79;42.59;94882.75;5116947;28;20200;-68
2022/07/15 09:51:46;;;;;;;3.65;2.60;;;;;;;24.83;42.15;94883.44;5117547;28;20191;-68
2022/07/15 09:54:13;;;;;;;3.17;2.92;;;;;;;24.96;42.34;94886.28;5117097;28;20243;-68
2022/07/15 09:56:40;;;;;;;3.13;2.80;;;;;;;25.10;38.79;94882.22;5117255;28;20206;-68
2022/07/15 09:59:08;;;;;;;4.90;3.30;;;;;;;25.10;41.15;94883.03;5117388;28;20483;-68
2022/07/15 10:01:35;;;;;;;5.43;2.78;;;;;;;25.15;42.03;94881.66;5117414;28;20226;-68
2022/07/15 10:04:01;;;;;;;3.42;2.78;;;;;;;25.31;39.92;94884.38;5117311;28;20199;-68
2022/07/15 10:06:29;;;;;;;5.22;3.28;;;;;;;25.36;40.96;94880.97;5117287;28;20207;-68
2022/07/15 10:08:57;;;;;;;4.32;3.20;;;;;;;25.36;40.49;94880.19;5116917;28;20195;-68
2022/07/15 10:11:24;;;;;;;3.95;3.60;;;;;;;25.33;40.34;94876.22;5116269;28;20195;-68
2022/07/15 10:14:03;;;;;;;3.65;3.40;;;;;;;25.42;39.03;94881.19;5115944;28;20230;-68
2022/07/15 10:16:52;;;;;;;3.42;3.13;;;;;;;25.58;38.93;94885.91;5116501;28;20184;-68
2022/07/15 10:19:25;;;;;;;3.88;3.38;;;;;;;25.59;40.19;94873.34;5117168;28;20199;-68
2022/07/15 10:21:59;;;;;;;3.35;2.63;;;;;;;25.57;40.12;94873.03;5116490;28;20264;-68
2022/07/15 10:24:40;;;;;;;3.42;2.80;;;;;;;25.57;40.63;94868.16;5115991;28;20202;-68
2022/07/15 10:27:20;;;;;;;4.10;2.58;;;;;;;25.63;39.56;94868.38;5115501;28;20199;-68
2022/07/15 10:29:48;;;;;;;3.28;2.67;;;;;;;25.65;40.43;94872.31;5116002;28;20210;-68
2022/07/15 10:32:14;;;;;;;3.55;2.50;;;;;;;25.70;36.72;94868.91;5116085;28;20211;-68
2022/07/15 10:34:41;;;;;;;2.70;2.50;;;;;;;25.68;37.20;94862.16;5115923;28;20249;-68
2022/07/15 10:37:10;;;;;;;3.53;2.50;;;;;;;25.66;40.39;94867.47;5115437;28;20192;-68
2022/07/15 10:40:06;;;;;;;3.17;2.72;;;;;;;25.72;38.39;94853.56;5115409;28;20611;-68
2022/07/15 10:42:57;;;;;;;4.78;3.15;;;;;;;25.85;37.98;94846.63;5115868;28;20203;-68
2022/07/15 10:45:24;;;;;;;3.60;3.08;;;;;;;25.95;35.67;94849.53;5116554;28;20195;-68
2022/07/15 10:48:26;;;;;;;3.20;2.75;;;;;;;26.00;36.50;94851.75;5116127;28;20202;-69
2022/07/15 10:50:53;;;;;;;2.90;2.70;;;;;;;26.08;34.64;94841.81;5115529;28;20192;-68
2022/07/15 10:53:24;;;;;;;2.80;2.60;;;;;;;26.10;37.22;94842.09;5116255;28;20242;-68
2022/07/15 10:55:52;;;;;;;4.38;2.85;;;;;;;26.14;35.99;94842.75;5115719;28;20207;-68
2022/07/15 10:58:20;;;;;;;3.00;2.70;;;;;;;26.20;34.94;94840.94;5115114;28;20191;-68
2022/07/15 11:00:47;;;;;;;2.97;2.67;;;;;;;26.36;34.28;94843.56;5116218;28;20180;-68
2022/07/15 11:03:17;;;;;;;3.88;2.53;;;;;;;26.34;34.57;94839.63;5116162;28;20244;-68
2022/07/15 11:06:05;;;;;;;4.18;2.90;;;;;;;26.35;34.41;94836.31;5115808;28;20273;-68
2022/07/15 11:08:56;;;;;;;2.70;2.50;;;;;;;26.41;34.28;94833.69;5115891;28;20225;-68
2022/07/15 11:11:49;;;;;;;2.50;2.40;;;;;;;26.58;35.97;94837.09;5114817;28;20641;-68
2022/07/15 11:14:45;;;;;;;3.25;2.35;;;;;;;26.57;34.88;94827.84;5116080;28;20219;-68
2022/07/15 11:17:12;;;;;;;3.70;2.50;;;;;;;26.71;34.31;94829.31;5115909;28;20192;-68
2022/07/15 11:19:39;;;;;;;2.55;2.33;;;;;;;26.81;34.60;94827.31;5115965;28;20180;-68
2022/07/15 11:22:06;;;;;;;2.38;2.20;;;;;;;26.78;33.75;94826.22;5115990;28;20183;-68
2022/07/15 11:24:35;;;;;;;2.70;2.50;;;;;;;26.82;34.17;94824.03;5116078;28;20607;-68
2022/07/15 11:27:04;;;;;;;2.60;2.40;;;;;;;26.78;33.73;94819.75;5114654;28;20212;-68
2022/07/15 11:29:45;;;;;;;2.72;2.53;;;;;;;26.74;34.20;94825.56;5114539;28;20188;-68
2022/07/15 11:32:13;;;;;;;2.50;2.30;;;;;;;26.72;34.05;94819.56;5115452;28;20274;-68
2022/07/15 11:34:42;;;;;;;2.42;2.22;;;;;;;26.81;32.63;94819.63;5115872;28;20179;-68
2022/07/15 11:37:10;;;;;;;2.85;2.38;;;;;;;26.85;32.61;94811.78;5114779;28;20192;-68
2022/07/15 11:39:37;;;;;;;3.05;2.30;;;;;;;26.95;33.53;94806.16;5115816;28;20253;-68
2022/07/15 11:44:51;;;;;;;3.03;2.60;;;;;;;27.13;31.32;94811.91;5114784;28;20195;-68
2022/07/15 11:47:19;;;;;;;2.67;2.35;;;;;;;27.21;30.86;94810.34;5115467;28;20253;-68
2022/07/15 11:49:46;;;;;;;2.90;2.63;;;;;;;27.23;32.10;94807.81;5114838;28;20203;-68
2022/07/15 11:52:23;;;;;;;2.40;2.20;;;;;;;27.36;31.59;94799.22;5114743;28;20510;-68
2022/07/15 11:54:50;;;;;;;3.00;2.70;;;;;;;27.40;33.02;94802.69;5114436;28;20203;-68